sensor_id;sensor_type;location;lat;lon;timestamp;P1;durP1;ratioP1;P2;durP2;ratioP2
23009;SDS011;11671;49.990;8.028;2023-08-30T00:00:31;16.55;;;15.40;;
23009;SDS011;11671;49.990;8.028;2023-08-30T00:05:22;23.70;;;22.27;;
23009;SDS011;11671;49.990;8.028;2023-08-30T00:10:14;33.35;;;31.55;;
23009;SDS011;11671;49.990;8.028;2023-08-30T00:15:05;32.50;;;30.60;;
23009;SDS011;11671;49.990;8.028;2023-08-30T00:17:31;26.77;;;24.95;;
23009;SDS011;11671;49.990;8.028;2023-08-30T00:22:23;25.38;;;23.50;;
23009;SDS011;11671;49.990;8.028;2023-08-30T00:27:14;22.15;;;20.65;;
23009;SDS011;11671;49.990;8.028;2023-08-30T00:32:05;20.17;;;18.73;;
23009;SDS011;11671;49.990;8.028;2023-08-30T00:36:56;25.02;;;23.33;;
23009;SDS011;11671;49.990;8.028;2023-08-30T00:41:47;21.55;;;20.23;;
23009;SDS011;11671;49.990;8.028;2023-08-30T00:46:38;19.25;;;17.90;;
23009;SDS011;11671;49.990;8.028;2023-08-30T00:51:30;21.88;;;20.17;;
23009;SDS011;11671;49.990;8.028;2023-08-30T00:53:57;27.00;;;25.35;;
23009;SDS011;11671;49.990;8.028;2023-08-30T00:56:28;25.55;;;23.60;;
23009;SDS011;11671;49.990;8.028;2023-08-30T00:58:54;19.35;;;18.08;;
23009;SDS011;11671;49.990;8.028;2023-08-30T01:03:46;19.88;;;18.33;;
23009;SDS011;11671;49.990;8.028;2023-08-30T01:06:11;26.63;;;25.23;;
23009;SDS011;11671;49.990;8.028;2023-08-30T01:08:40;19.85;;;18.70;;
23009;SDS011;11671;49.990;8.028;2023-08-30T01:11:20;25.75;;;24.17;;
23009;SDS011;11671;49.990;8.028;2023-08-30T01:14:05;28.92;;;27.35;;
23009;SDS011;11671;49.990;8.028;2023-08-30T01:16:37;26.70;;;24.90;;
23009;SDS011;11671;49.990;8.028;2023-08-30T01:22:00;17.98;;;16.63;;
23009;SDS011;11671;49.990;8.028;2023-08-30T01:27:22;20.27;;;18.85;;
23009;SDS011;11671;49.990;8.028;2023-08-30T01:29:49;19.92;;;18.60;;
23009;SDS011;11671;49.990;8.028;2023-08-30T01:32:17;23.27;;;21.77;;
23009;SDS011;11671;49.990;8.028;2023-08-30T01:34:45;27.58;;;26.02;;
23009;SDS011;11671;49.990;8.028;2023-08-30T01:37:12;27.85;;;26.17;;
23009;SDS011;11671;49.990;8.028;2023-08-30T01:39:39;22.40;;;20.95;;
23009;SDS011;11671;49.990;8.028;2023-08-30T01:42:06;23.40;;;22.05;;
23009;SDS011;11671;49.990;8.028;2023-08-30T01:44:33;18.00;;;16.67;;
23009;SDS011;11671;49.990;8.028;2023-08-30T01:46:59;15.68;;;14.43;;
23009;SDS011;11671;49.990;8.028;2023-08-30T01:49:26;19.23;;;17.88;;
23009;SDS011;11671;49.990;8.028;2023-08-30T01:51:54;19.83;;;18.58;;
23009;SDS011;11671;49.990;8.028;2023-08-30T01:54:20;22.05;;;20.77;;
23009;SDS011;11671;49.990;8.028;2023-08-30T01:56:46;21.65;;;20.30;;
23009;SDS011;11671;49.990;8.028;2023-08-30T02:01:38;24.58;;;23.17;;
23009;SDS011;11671;49.990;8.028;2023-08-30T02:06:31;23.60;;;22.20;;
23009;SDS011;11671;49.990;8.028;2023-08-30T02:09:03;24.23;;;22.92;;
23009;SDS011;11671;49.990;8.028;2023-08-30T02:11:36;34.03;;;32.17;;
23009;SDS011;11671;49.990;8.028;2023-08-30T02:14:04;25.13;;;23.45;;
23009;SDS011;11671;49.990;8.028;2023-08-30T02:16:32;22.55;;;20.90;;
23009;SDS011;11671;49.990;8.028;2023-08-30T02:21:24;23.20;;;21.77;;
23009;SDS011;11671;49.990;8.028;2023-08-30T02:23:52;24.20;;;22.95;;
23009;SDS011;11671;49.990;8.028;2023-08-30T02:28:43;29.10;;;27.52;;
23009;SDS011;11671;49.990;8.028;2023-08-30T02:33:34;20.52;;;19.30;;
23009;SDS011;11671;49.990;8.028;2023-08-30T02:36:02;29.33;;;27.52;;
23009;SDS011;11671;49.990;8.028;2023-08-30T02:40:53;23.13;;;21.60;;
23009;SDS011;11671;49.990;8.028;2023-08-30T02:45:44;34.85;;;32.95;;
23009;SDS011;11671;49.990;8.028;2023-08-30T02:48:10;41.42;;;39.17;;
23009;SDS011;11671;49.990;8.028;2023-08-30T02:53:01;25.13;;;23.52;;
23009;SDS011;11671;49.990;8.028;2023-08-30T02:55:28;25.83;;;24.45;;
23009;SDS011;11671;49.990;8.028;2023-08-30T02:57:56;27.80;;;26.23;;
23009;SDS011;11671;49.990;8.028;2023-08-30T03:02:47;24.88;;;23.17;;
23009;SDS011;11671;49.990;8.028;2023-08-30T03:05:13;22.25;;;20.67;;
23009;SDS011;11671;49.990;8.028;2023-08-30T03:10:05;25.02;;;23.25;;
23009;SDS011;11671;49.990;8.028;2023-08-30T03:12:31;24.90;;;23.38;;
23009;SDS011;11671;49.990;8.028;2023-08-30T03:14:57;21.23;;;19.70;;
23009;SDS011;11671;49.990;8.028;2023-08-30T03:19:51;26.98;;;24.90;;
23009;SDS011;11671;49.990;8.028;2023-08-30T03:22:18;41.40;;;38.70;;
23009;SDS011;11671;49.990;8.028;2023-08-30T03:27:09;34.17;;;32.15;;
23009;SDS011;11671;49.990;8.028;2023-08-30T03:32:00;43.78;;;41.35;;
23009;SDS011;11671;49.990;8.028;2023-08-30T03:36:51;32.28;;;30.50;;
23009;SDS011;11671;49.990;8.028;2023-08-30T03:39:19;44.67;;;42.33;;
23009;SDS011;11671;49.990;8.028;2023-08-30T03:41:46;43.78;;;41.60;;
23009;SDS011;11671;49.990;8.028;2023-08-30T03:46:37;46.47;;;43.85;;
23009;SDS011;11671;49.990;8.028;2023-08-30T03:51:28;21.92;;;20.55;;
23009;SDS011;11671;49.990;8.028;2023-08-30T03:56:21;10.82;;;6.30;;
23009;SDS011;11671;49.990;8.028;2023-08-30T04:01:13;17.67;;;16.35;;
23009;SDS011;11671;49.990;8.028;2023-08-30T04:06:04;20.00;;;18.88;;
23009;SDS011;11671;49.990;8.028;2023-08-30T04:10:56;25.33;;;23.85;;
23009;SDS011;11671;49.990;8.028;2023-08-30T04:15:47;24.35;;;22.85;;
23009;SDS011;11671;49.990;8.028;2023-08-30T04:20:42;23.38;;;21.88;;
23009;SDS011;11671;49.990;8.028;2023-08-30T04:23:09;16.83;;;15.73;;
23009;SDS011;11671;49.990;8.028;2023-08-30T04:28:00;22.30;;;20.77;;
23009;SDS011;11671;49.990;8.028;2023-08-30T04:30:25;30.02;;;28.00;;
23009;SDS011;11671;49.990;8.028;2023-08-30T04:35:17;26.33;;;24.48;;
23009;SDS011;11671;49.990;8.028;2023-08-30T04:40:08;36.13;;;33.95;;
23009;SDS011;11671;49.990;8.028;2023-08-30T04:42:34;31.83;;;29.42;;
23009;SDS011;11671;49.990;8.028;2023-08-30T04:45:02;30.30;;;28.20;;
23009;SDS011;11671;49.990;8.028;2023-08-30T04:47:29;27.48;;;25.67;;
23009;SDS011;11671;49.990;8.028;2023-08-30T04:49:55;19.27;;;17.50;;
23009;SDS011;11671;49.990;8.028;2023-08-30T04:54:46;27.65;;;25.38;;
23009;SDS011;11671;49.990;8.028;2023-08-30T04:57:13;19.15;;;17.23;;
23009;SDS011;11671;49.990;8.028;2023-08-30T04:59:41;20.58;;;18.88;;
23009;SDS011;11671;49.990;8.028;2023-08-30T05:02:07;18.67;;;16.92;;
23009;SDS011;11671;49.990;8.028;2023-08-30T05:04:35;23.48;;;21.48;;
23009;SDS011;11671;49.990;8.028;2023-08-30T05:09:27;21.92;;;19.60;;
23009;SDS011;11671;49.990;8.028;2023-08-30T05:15:17;23.20;;;20.92;;
23009;SDS011;11671;49.990;8.028;2023-08-30T05:17:43;23.02;;;21.20;;
23009;SDS011;11671;49.990;8.028;2023-08-30T05:22:34;21.42;;;19.67;;
23009;SDS011;11671;49.990;8.028;2023-08-30T05:27:26;19.75;;;16.05;;
23009;SDS011;11671;49.990;8.028;2023-08-30T05:32:18;20.05;;;18.20;;
23009;SDS011;11671;49.990;8.028;2023-08-30T05:37:09;18.63;;;16.98;;
23009;SDS011;11671;49.990;8.028;2023-08-30T05:42:00;15.13;;;13.60;;
23009;SDS011;11671;49.990;8.028;2023-08-30T05:46:51;22.42;;;20.45;;
23009;SDS011;11671;49.990;8.028;2023-08-30T05:51:42;17.17;;;15.63;;
23009;SDS011;11671;49.990;8.028;2023-08-30T05:56:33;14.50;;;13.18;;
23009;SDS011;11671;49.990;8.028;2023-08-30T06:01:24;22.30;;;20.63;;
23009;SDS011;11671;49.990;8.028;2023-08-30T06:06:15;22.95;;;20.83;;
23009;SDS011;11671;49.990;8.028;2023-08-30T06:08:42;17.13;;;15.45;;
23009;SDS011;11671;49.990;8.028;2023-08-30T06:13:33;16.27;;;14.88;;
23009;SDS011;11671;49.990;8.028;2023-08-30T06:18:24;18.33;;;16.88;;
23009;SDS011;11671;49.990;8.028;2023-08-30T06:20:51;14.45;;;13.23;;
23009;SDS011;11671;49.990;8.028;2023-08-30T06:25:43;19.23;;;17.83;;
23009;SDS011;11671;49.990;8.028;2023-08-30T06:30:34;17.63;;;16.40;;
23009;SDS011;11671;49.990;8.028;2023-08-30T06:35:26;12.10;;;11.00;;
23009;SDS011;11671;49.990;8.028;2023-08-30T06:40:17;14.55;;;13.35;;
23009;SDS011;11671;49.990;8.028;2023-08-30T06:45:09;17.92;;;16.50;;
23009;SDS011;11671;49.990;8.028;2023-08-30T06:47:34;20.98;;;19.42;;
23009;SDS011;11671;49.990;8.028;2023-08-30T06:52:26;14.43;;;13.20;;
23009;SDS011;11671;49.990;8.028;2023-08-30T06:57:17;17.63;;;16.30;;
23009;SDS011;11671;49.990;8.028;2023-08-30T06:59:42;18.05;;;16.70;;
23009;SDS011;11671;49.990;8.028;2023-08-30T07:02:08;14.02;;;13.02;;
23009;SDS011;11671;49.990;8.028;2023-08-30T07:04:34;16.77;;;15.50;;
23009;SDS011;11671;49.990;8.028;2023-08-30T07:06:59;22.73;;;21.13;;
23009;SDS011;11671;49.990;8.028;2023-08-30T07:09:25;17.00;;;15.48;;
23009;SDS011;11671;49.990;8.028;2023-08-30T07:11:57;18.58;;;17.17;;
23009;SDS011;11671;49.990;8.028;2023-08-30T07:14:23;14.07;;;12.82;;
23009;SDS011;11671;49.990;8.028;2023-08-30T07:16:49;11.30;;;10.30;;
23009;SDS011;11671;49.990;8.028;2023-08-30T07:19:15;17.35;;;15.80;;
23009;SDS011;11671;49.990;8.028;2023-08-30T07:21:43;14.40;;;13.48;;
23009;SDS011;11671;49.990;8.028;2023-08-30T07:24:09;9.70;;;7.93;;
23009;SDS011;11671;49.990;8.028;2023-08-30T07:26:35;13.48;;;12.18;;
23009;SDS011;11671;49.990;8.028;2023-08-30T07:29:01;11.18;;;10.20;;
23009;SDS011;11671;49.990;8.028;2023-08-30T07:31:27;11.57;;;10.73;;
23009;SDS011;11671;49.990;8.028;2023-08-30T07:33:52;10.27;;;9.25;;
23009;SDS011;11671;49.990;8.028;2023-08-30T07:36:18;15.45;;;14.30;;
23009;SDS011;11671;49.990;8.028;2023-08-30T07:38:43;10.68;;;9.75;;
23009;SDS011;11671;49.990;8.028;2023-08-30T07:41:09;14.95;;;13.77;;
23009;SDS011;11671;49.990;8.028;2023-08-30T07:43:35;16.15;;;14.70;;
23009;SDS011;11671;49.990;8.028;2023-08-30T07:48:26;19.50;;;18.10;;
23009;SDS011;11671;49.990;8.028;2023-08-30T07:50:52;18.23;;;16.92;;
23009;SDS011;11671;49.990;8.028;2023-08-30T07:53:21;22.63;;;21.15;;
23009;SDS011;11671;49.990;8.028;2023-08-30T07:58:15;17.58;;;16.15;;
23009;SDS011;11671;49.990;8.028;2023-08-30T08:00:42;15.57;;;14.30;;
23009;SDS011;11671;49.990;8.028;2023-08-30T08:05:35;14.40;;;13.07;;
23009;SDS011;11671;49.990;8.028;2023-08-30T08:08:01;11.85;;;10.75;;
23009;SDS011;11671;49.990;8.028;2023-08-30T08:10:28;12.90;;;10.90;;
23009;SDS011;11671;49.990;8.028;2023-08-30T08:12:57;9.57;;;8.75;;
23009;SDS011;11671;49.990;8.028;2023-08-30T08:15:23;11.57;;;10.00;;
23009;SDS011;11671;49.990;8.028;2023-08-30T08:17:49;12.43;;;11.05;;
23009;SDS011;11671;49.990;8.028;2023-08-30T08:22:40;15.43;;;14.07;;
23009;SDS011;11671;49.990;8.028;2023-08-30T08:27:34;17.08;;;15.65;;
23009;SDS011;11671;49.990;8.028;2023-08-30T08:30:04;57.97;;;54.83;;
23009;SDS011;11671;49.990;8.028;2023-08-30T08:32:30;189.77;;;179.20;;
23009;SDS011;11671;49.990;8.028;2023-08-30T08:34:56;211.80;;;199.60;;
23009;SDS011;11671;49.990;8.028;2023-08-30T08:37:22;238.05;;;223.27;;
23009;SDS011;11671;49.990;8.028;2023-08-30T08:39:48;9.93;;;9.05;;
23009;SDS011;11671;49.990;8.028;2023-08-30T08:42:17;12.05;;;11.15;;
23009;SDS011;11671;49.990;8.028;2023-08-30T08:44:47;11.63;;;10.63;;
23009;SDS011;11671;49.990;8.028;2023-08-30T08:47:19;10.48;;;9.57;;
23009;SDS011;11671;49.990;8.028;2023-08-30T08:49:45;10.55;;;9.68;;
23009;SDS011;11671;49.990;8.028;2023-08-30T08:52:13;206.20;;;191.75;;
23009;SDS011;11671;49.990;8.028;2023-08-30T08:54:40;481.50;;;447.15;;
23009;SDS011;11671;49.990;8.028;2023-08-30T08:57:08;442.13;;;410.17;;
23009;SDS011;11671;49.990;8.028;2023-08-30T08:59:34;542.92;;;503.85;;
23009;SDS011;11671;49.990;8.028;2023-08-30T09:02:00;470.30;;;436.58;;
23009;SDS011;11671;49.990;8.028;2023-08-30T09:04:26;236.88;;;222.40;;
23009;SDS011;11671;49.990;8.028;2023-08-30T09:07:00;223.07;;;209.85;;
23009;SDS011;11671;49.990;8.028;2023-08-30T09:09:26;13.02;;;11.95;;
23009;SDS011;11671;49.990;8.028;2023-08-30T09:11:52;10.23;;;9.32;;
23009;SDS011;11671;49.990;8.028;2023-08-30T09:14:18;11.35;;;8.68;;
23009;SDS011;11671;49.990;8.028;2023-08-30T09:19:39;12.07;;;10.98;;
23009;SDS011;11671;49.990;8.028;2023-08-30T09:22:04;10.38;;;9.38;;
23009;SDS011;11671;49.990;8.028;2023-08-30T09:24:39;10.75;;;9.85;;
23009;SDS011;11671;49.990;8.028;2023-08-30T09:27:06;9.70;;;8.75;;
23009;SDS011;11671;49.990;8.028;2023-08-30T09:29:32;10.05;;;9.15;;
23009;SDS011;11671;49.990;8.028;2023-08-30T09:31:57;10.27;;;9.38;;
23009;SDS011;11671;49.990;8.028;2023-08-30T09:34:25;7.35;;;6.25;;
23009;SDS011;11671;49.990;8.028;2023-08-30T09:36:50;10.00;;;8.45;;
23009;SDS011;11671;49.990;8.028;2023-08-30T09:39:16;9.07;;;8.27;;
23009;SDS011;11671;49.990;8.028;2023-08-30T09:41:48;8.50;;;7.70;;
23009;SDS011;11671;49.990;8.028;2023-08-30T09:44:18;9.45;;;8.43;;
23009;SDS011;11671;49.990;8.028;2023-08-30T09:46:53;10.25;;;6.30;;
23009;SDS011;11671;49.990;8.028;2023-08-30T09:49:20;10.35;;;6.38;;
23009;SDS011;11671;49.990;8.028;2023-08-30T09:51:47;7.53;;;6.60;;
23009;SDS011;11671;49.990;8.028;2023-08-30T09:54:15;8.82;;;7.50;;
23009;SDS011;11671;49.990;8.028;2023-08-30T09:56:43;8.77;;;7.82;;
23009;SDS011;11671;49.990;8.028;2023-08-30T09:59:13;8.52;;;7.72;;
23009;SDS011;11671;49.990;8.028;2023-08-30T10:01:40;10.18;;;9.30;;
23009;SDS011;11671;49.990;8.028;2023-08-30T10:04:07;6.13;;;5.53;;
23009;SDS011;11671;49.990;8.028;2023-08-30T10:06:36;10.25;;;8.65;;
23009;SDS011;11671;49.990;8.028;2023-08-30T10:09:03;14.75;;;9.52;;
23009;SDS011;11671;49.990;8.028;2023-08-30T10:11:32;11.85;;;10.82;;
23009;SDS011;11671;49.990;8.028;2023-08-30T10:14:02;13.07;;;8.93;;
23009;SDS011;11671;49.990;8.028;2023-08-30T10:16:35;13.90;;;12.80;;
23009;SDS011;11671;49.990;8.028;2023-08-30T10:19:09;9.52;;;8.60;;
23009;SDS011;11671;49.990;8.028;2023-08-30T10:21:39;12.30;;;11.50;;
23009;SDS011;11671;49.990;8.028;2023-08-30T10:24:06;8.88;;;8.15;;
23009;SDS011;11671;49.990;8.028;2023-08-30T10:26:35;13.52;;;12.25;;
23009;SDS011;11671;49.990;8.028;2023-08-30T10:29:02;9.80;;;8.82;;
23009;SDS011;11671;49.990;8.028;2023-08-30T10:31:29;13.45;;;12.63;;
23009;SDS011;11671;49.990;8.028;2023-08-30T10:33:55;9.20;;;8.48;;
23009;SDS011;11671;49.990;8.028;2023-08-30T10:36:25;10.18;;;9.40;;
23009;SDS011;11671;49.990;8.028;2023-08-30T10:42:14;9.48;;;8.65;;
23009;SDS011;11671;49.990;8.028;2023-08-30T10:47:22;7.53;;;6.63;;
23009;SDS011;11671;49.990;8.028;2023-08-30T10:49:53;7.65;;;7.13;;
23009;SDS011;11671;49.990;8.028;2023-08-30T10:52:19;6.68;;;5.55;;
23009;SDS011;11671;49.990;8.028;2023-08-30T10:54:45;8.98;;;8.07;;
23009;SDS011;11671;49.990;8.028;2023-08-30T10:57:14;10.20;;;9.40;;
23009;SDS011;11671;49.990;8.028;2023-08-30T11:02:38;10.35;;;9.50;;
23009;SDS011;11671;49.990;8.028;2023-08-30T11:05:09;9.07;;;8.35;;
23009;SDS011;11671;49.990;8.028;2023-08-30T11:07:34;12.30;;;10.57;;
23009;SDS011;11671;49.990;8.028;2023-08-30T11:10:00;8.75;;;8.07;;
23009;SDS011;11671;49.990;8.028;2023-08-30T11:12:48;13.40;;;12.25;;
23009;SDS011;11671;49.990;8.028;2023-08-30T11:15:15;11.32;;;10.43;;
23009;SDS011;11671;49.990;8.028;2023-08-30T11:17:44;12.88;;;11.73;;
23009;SDS011;11671;49.990;8.028;2023-08-30T11:20:10;13.27;;;12.18;;
23009;SDS011;11671;49.990;8.028;2023-08-30T11:22:42;12.63;;;11.65;;
23009;SDS011;11671;49.990;8.028;2023-08-30T11:25:09;12.02;;;10.98;;
23009;SDS011;11671;49.990;8.028;2023-08-30T11:27:36;10.82;;;9.95;;
23009;SDS011;11671;49.990;8.028;2023-08-30T11:30:02;18.70;;;14.52;;
23009;SDS011;11671;49.990;8.028;2023-08-30T11:32:37;8.68;;;7.80;;
23009;SDS011;11671;49.990;8.028;2023-08-30T11:35:04;14.82;;;13.50;;
23009;SDS011;11671;49.990;8.028;2023-08-30T11:37:30;13.80;;;12.57;;
23009;SDS011;11671;49.990;8.028;2023-08-30T11:39:58;16.75;;;15.50;;
23009;SDS011;11671;49.990;8.028;2023-08-30T11:42:25;14.10;;;13.13;;
23009;SDS011;11671;49.990;8.028;2023-08-30T11:44:51;13.35;;;12.38;;
23009;SDS011;11671;49.990;8.028;2023-08-30T11:50:24;12.93;;;11.90;;
23009;SDS011;11671;49.990;8.028;2023-08-30T11:52:50;8.18;;;7.40;;
23009;SDS011;11671;49.990;8.028;2023-08-30T11:55:16;19.70;;;17.98;;
23009;SDS011;11671;49.990;8.028;2023-08-30T11:57:45;9.80;;;9.00;;
23009;SDS011;11671;49.990;8.028;2023-08-30T12:00:13;10.18;;;9.40;;
23009;SDS011;11671;49.990;8.028;2023-08-30T12:02:42;8.27;;;7.65;;
23009;SDS011;11671;49.990;8.028;2023-08-30T12:05:15;9.77;;;8.82;;
23009;SDS011;11671;49.990;8.028;2023-08-30T12:07:41;11.52;;;8.95;;
23009;SDS011;11671;49.990;8.028;2023-08-30T12:10:08;10.35;;;9.40;;
23009;SDS011;11671;49.990;8.028;2023-08-30T12:12:35;7.88;;;7.13;;
23009;SDS011;11671;49.990;8.028;2023-08-30T12:15:08;6.75;;;5.93;;
23009;SDS011;11671;49.990;8.028;2023-08-30T12:17:36;6.78;;;5.43;;
23009;SDS011;11671;49.990;8.028;2023-08-30T12:20:02;6.68;;;5.15;;
23009;SDS011;11671;49.990;8.028;2023-08-30T12:22:38;7.38;;;6.78;;
23009;SDS011;11671;49.990;8.028;2023-08-30T12:25:15;6.30;;;4.10;;
23009;SDS011;11671;49.990;8.028;2023-08-30T12:27:51;6.10;;;5.07;;
23009;SDS011;11671;49.990;8.028;2023-08-30T12:30:18;10.60;;;9.73;;
23009;SDS011;11671;49.990;8.028;2023-08-30T12:32:44;10.65;;;9.38;;
23009;SDS011;11671;49.990;8.028;2023-08-30T12:35:10;8.70;;;8.00;;
23009;SDS011;11671;49.990;8.028;2023-08-30T12:37:36;16.23;;;15.20;;
23009;SDS011;11671;49.990;8.028;2023-08-30T12:40:02;23.27;;;21.75;;
23009;SDS011;11671;49.990;8.028;2023-08-30T12:42:28;23.60;;;22.25;;
23009;SDS011;11671;49.990;8.028;2023-08-30T12:44:54;22.83;;;21.20;;
23009;SDS011;11671;49.990;8.028;2023-08-30T12:47:19;16.40;;;15.18;;
23009;SDS011;11671;49.990;8.028;2023-08-30T12:49:46;17.02;;;15.95;;
23009;SDS011;11671;49.990;8.028;2023-08-30T12:52:11;18.35;;;17.00;;
23009;SDS011;11671;49.990;8.028;2023-08-30T12:54:37;15.10;;;13.93;;
23009;SDS011;11671;49.990;8.028;2023-08-30T12:57:03;12.85;;;11.50;;
23009;SDS011;11671;49.990;8.028;2023-08-30T12:59:29;17.52;;;16.40;;
23009;SDS011;11671;49.990;8.028;2023-08-30T13:01:54;13.25;;;12.05;;
23009;SDS011;11671;49.990;8.028;2023-08-30T13:04:20;10.10;;;9.30;;
23009;SDS011;11671;49.990;8.028;2023-08-30T13:06:45;9.57;;;8.60;;
23009;SDS011;11671;49.990;8.028;2023-08-30T13:09:11;7.18;;;5.82;;
23009;SDS011;11671;49.990;8.028;2023-08-30T13:11:37;8.57;;;6.85;;
23009;SDS011;11671;49.990;8.028;2023-08-30T13:14:02;9.85;;;8.70;;
23009;SDS011;11671;49.990;8.028;2023-08-30T13:18:53;10.63;;;9.68;;
23009;SDS011;11671;49.990;8.028;2023-08-30T13:23:45;8.55;;;6.15;;
23009;SDS011;11671;49.990;8.028;2023-08-30T13:26:10;8.30;;;4.80;;
23009;SDS011;11671;49.990;8.028;2023-08-30T13:28:36;7.57;;;6.22;;
23009;SDS011;11671;49.990;8.028;2023-08-30T13:31:02;6.38;;;4.50;;
23009;SDS011;11671;49.990;8.028;2023-08-30T13:33:27;7.60;;;5.78;;
23009;SDS011;11671;49.990;8.028;2023-08-30T13:35:53;9.52;;;5.78;;
23009;SDS011;11671;49.990;8.028;2023-08-30T13:38:19;5.90;;;4.88;;
23009;SDS011;11671;49.990;8.028;2023-08-30T13:40:45;7.88;;;5.82;;
23009;SDS011;11671;49.990;8.028;2023-08-30T13:43:10;6.95;;;5.78;;
23009;SDS011;11671;49.990;8.028;2023-08-30T13:45:36;8.10;;;7.32;;
23009;SDS011;11671;49.990;8.028;2023-08-30T13:48:02;7.00;;;6.00;;
23009;SDS011;11671;49.990;8.028;2023-08-30T13:50:28;8.30;;;6.15;;
23009;SDS011;11671;49.990;8.028;2023-08-30T13:52:56;6.95;;;5.85;;
23009;SDS011;11671;49.990;8.028;2023-08-30T13:55:22;8.15;;;6.75;;
23009;SDS011;11671;49.990;8.028;2023-08-30T13:57:48;6.38;;;5.78;;
23009;SDS011;11671;49.990;8.028;2023-08-30T14:00:13;7.13;;;6.10;;
23009;SDS011;11671;49.990;8.028;2023-08-30T14:02:39;8.65;;;7.70;;
23009;SDS011;11671;49.990;8.028;2023-08-30T14:05:05;10.27;;;6.15;;
23009;SDS011;11671;49.990;8.028;2023-08-30T14:07:31;5.68;;;4.72;;
23009;SDS011;11671;49.990;8.028;2023-08-30T14:09:57;6.50;;;3.95;;
23009;SDS011;11671;49.990;8.028;2023-08-30T14:12:23;6.90;;;6.30;;
23009;SDS011;11671;49.990;8.028;2023-08-30T14:14:49;7.13;;;4.32;;
23009;SDS011;11671;49.990;8.028;2023-08-30T14:17:14;5.65;;;3.92;;
23009;SDS011;11671;49.990;8.028;2023-08-30T14:19:40;6.22;;;4.13;;
23009;SDS011;11671;49.990;8.028;2023-08-30T14:22:05;6.22;;;5.63;;
23009;SDS011;11671;49.990;8.028;2023-08-30T14:24:31;7.10;;;4.45;;
23009;SDS011;11671;49.990;8.028;2023-08-30T14:26:58;6.07;;;5.40;;
23009;SDS011;11671;49.990;8.028;2023-08-30T14:29:25;6.40;;;5.45;;
23009;SDS011;11671;49.990;8.028;2023-08-30T14:31:51;6.57;;;4.75;;
23009;SDS011;11671;49.990;8.028;2023-08-30T14:34:17;4.85;;;3.58;;
23009;SDS011;11671;49.990;8.028;2023-08-30T14:36:43;6.03;;;5.30;;
23009;SDS011;11671;49.990;8.028;2023-08-30T14:39:08;7.50;;;6.82;;
23009;SDS011;11671;49.990;8.028;2023-08-30T14:41:34;6.60;;;4.57;;
23009;SDS011;11671;49.990;8.028;2023-08-30T14:44:02;8.00;;;7.07;;
23009;SDS011;11671;49.990;8.028;2023-08-30T14:46:28;6.60;;;5.97;;
23009;SDS011;11671;49.990;8.028;2023-08-30T14:48:54;3.55;;;2.80;;
23009;SDS011;11671;49.990;8.028;2023-08-30T14:51:20;4.68;;;3.78;;
23009;SDS011;11671;49.990;8.028;2023-08-30T14:53:45;7.40;;;4.72;;
23009;SDS011;11671;49.990;8.028;2023-08-30T14:56:11;5.03;;;4.53;;
23009;SDS011;11671;49.990;8.028;2023-08-30T14:58:36;4.43;;;3.65;;
23009;SDS011;11671;49.990;8.028;2023-08-30T15:01:02;7.30;;;4.70;;
23009;SDS011;11671;49.990;8.028;2023-08-30T15:03:29;6.80;;;5.97;;
23009;SDS011;11671;49.990;8.028;2023-08-30T15:05:55;9.25;;;4.45;;
23009;SDS011;11671;49.990;8.028;2023-08-30T15:08:22;7.07;;;4.30;;
23009;SDS011;11671;49.990;8.028;2023-08-30T15:10:48;7.75;;;6.47;;
23009;SDS011;11671;49.990;8.028;2023-08-30T15:13:14;5.93;;;5.43;;
23009;SDS011;11671;49.990;8.028;2023-08-30T15:15:39;8.02;;;7.32;;
23009;SDS011;11671;49.990;8.028;2023-08-30T15:18:05;9.35;;;8.52;;
23009;SDS011;11671;49.990;8.028;2023-08-30T15:20:30;7.78;;;7.18;;
23009;SDS011;11671;49.990;8.028;2023-08-30T15:22:56;10.13;;;9.30;;
23009;SDS011;11671;49.990;8.028;2023-08-30T15:25:23;5.35;;;4.95;;
23009;SDS011;11671;49.990;8.028;2023-08-30T15:27:49;6.95;;;6.13;;
23009;SDS011;11671;49.990;8.028;2023-08-30T15:30:15;9.95;;;7.60;;
23009;SDS011;11671;49.990;8.028;2023-08-30T15:32:43;8.18;;;7.47;;
23009;SDS011;11671;49.990;8.028;2023-08-30T15:35:09;11.45;;;10.65;;
23009;SDS011;11671;49.990;8.028;2023-08-30T15:37:37;7.40;;;5.68;;
23009;SDS011;11671;49.990;8.028;2023-08-30T15:40:03;6.35;;;5.85;;
23009;SDS011;11671;49.990;8.028;2023-08-30T15:42:32;5.97;;;5.38;;
23009;SDS011;11671;49.990;8.028;2023-08-30T15:44:58;8.20;;;7.40;;
23009;SDS011;11671;49.990;8.028;2023-08-30T15:47:25;10.73;;;9.90;;
23009;SDS011;11671;49.990;8.028;2023-08-30T15:49:51;9.73;;;8.70;;
23009;SDS011;11671;49.990;8.028;2023-08-30T15:52:17;7.43;;;6.68;;
23009;SDS011;11671;49.990;8.028;2023-08-30T15:54:43;5.85;;;5.35;;
23009;SDS011;11671;49.990;8.028;2023-08-30T15:57:08;6.25;;;5.63;;
23009;SDS011;11671;49.990;8.028;2023-08-30T15:59:34;7.35;;;6.38;;
23009;SDS011;11671;49.990;8.028;2023-08-30T16:01:59;8.45;;;6.22;;
23009;SDS011;11671;49.990;8.028;2023-08-30T16:04:25;6.72;;;6.18;;
23009;SDS011;11671;49.990;8.028;2023-08-30T16:06:51;8.50;;;7.15;;
23009;SDS011;11671;49.990;8.028;2023-08-30T16:09:16;5.35;;;4.95;;
23009;SDS011;11671;49.990;8.028;2023-08-30T16:11:42;8.73;;;7.95;;
23009;SDS011;11671;49.990;8.028;2023-08-30T16:14:07;9.10;;;7.57;;
23009;SDS011;11671;49.990;8.028;2023-08-30T16:16:35;9.23;;;8.48;;
23009;SDS011;11671;49.990;8.028;2023-08-30T16:21:26;11.57;;;10.70;;
23009;SDS011;11671;49.990;8.028;2023-08-30T16:26:18;8.27;;;7.68;;
23009;SDS011;11671;49.990;8.028;2023-08-30T16:31:09;12.48;;;11.63;;
23009;SDS011;11671;49.990;8.028;2023-08-30T16:33:35;18.10;;;17.10;;
23009;SDS011;11671;49.990;8.028;2023-08-30T16:36:02;13.55;;;12.70;;
23009;SDS011;11671;49.990;8.028;2023-08-30T16:40:54;14.57;;;13.85;;
23009;SDS011;11671;49.990;8.028;2023-08-30T16:43:27;18.50;;;17.52;;
23009;SDS011;11671;49.990;8.028;2023-08-30T16:48:18;26.83;;;25.35;;
23009;SDS011;11671;49.990;8.028;2023-08-30T16:53:09;21.08;;;19.88;;
23009;SDS011;11671;49.990;8.028;2023-08-30T16:58:00;22.98;;;21.58;;
23009;SDS011;11671;49.990;8.028;2023-08-30T17:02:52;27.75;;;26.40;;
23009;SDS011;11671;49.990;8.028;2023-08-30T17:05:19;19.65;;;18.75;;
23009;SDS011;11671;49.990;8.028;2023-08-30T17:10:10;19.27;;;18.20;;
23009;SDS011;11671;49.990;8.028;2023-08-30T17:15:02;28.95;;;27.52;;
23009;SDS011;11671;49.990;8.028;2023-08-30T17:17:28;19.08;;;18.15;;
23009;SDS011;11671;49.990;8.028;2023-08-30T17:22:19;21.25;;;20.02;;
23009;SDS011;11671;49.990;8.028;2023-08-30T17:27:13;27.02;;;25.48;;
23009;SDS011;11671;49.990;8.028;2023-08-30T17:29:42;21.90;;;20.88;;
23009;SDS011;11671;49.990;8.028;2023-08-30T17:32:08;19.83;;;18.85;;
23009;SDS011;11671;49.990;8.028;2023-08-30T17:34:33;18.67;;;17.45;;
23009;SDS011;11671;49.990;8.028;2023-08-30T17:39:28;28.83;;;27.45;;
23009;SDS011;11671;49.990;8.028;2023-08-30T17:41:55;24.67;;;23.27;;
23009;SDS011;11671;49.990;8.028;2023-08-30T17:46:47;26.00;;;24.50;;
23009;SDS011;11671;49.990;8.028;2023-08-30T17:51:38;16.90;;;16.05;;
23009;SDS011;11671;49.990;8.028;2023-08-30T17:56:30;15.15;;;14.40;;
23009;SDS011;11671;49.990;8.028;2023-08-30T18:01:22;32.55;;;30.77;;
23009;SDS011;11671;49.990;8.028;2023-08-30T18:03:52;31.27;;;29.67;;
23009;SDS011;11671;49.990;8.028;2023-08-30T18:06:21;21.45;;;20.17;;
23009;SDS011;11671;49.990;8.028;2023-08-30T18:08:49;22.65;;;21.35;;